| time (UTC) | temp F | wind direction | speed MPH | gust MPH | rain 1hr in | rain 24hr in | rain mn in | humidity % | barometer mb |
| 20260506175129 | 48 | 68 | 0.0 | 2.0 | 0.02 | 0.24 | 0.24 | 93 | 1009.5 |
| 20260506174118 | 48 | 68 | 0.0 | 2.0 | 0.02 | 0.24 | 0.24 | 93 | 1009.5 |
| 20260506173110 | 48 | 68 | 0.0 | 2.0 | 0.03 | 0.24 | 0.24 | 93 | 1009.3 |
| 20260506171025 | 48 | 68 | 0.0 | 2.0 | 0.04 | 0.23 | 0.23 | 93 | 1009.3 |
| 20260506165956 | 48 | 68 | 0.0 | 2.0 | 0.05 | 0.22 | 0.22 | 92 | 1009.3 |
| 20260506164932 | 48 | 68 | 0.0 | 2.0 | 0.06 | 0.21 | 0.21 | 92 | 1009.3 |
| 20260506163923 | 48 | 68 | 0.0 | 2.0 | 0.06 | 0.20 | 0.20 | 92 | 1009.3 |
| 20260506162908 | 48 | 68 | 0.0 | 2.0 | 0.06 | 0.20 | 0.20 | 91 | 1009.3 |
| 20260506161835 | 48 | 68 | 1.0 | 3.0 | 0.06 | 0.19 | 0.19 | 89 | 1009.3 |
| 20260506160819 | 49 | 68 | 2.0 | 4.0 | 0.04 | 0.17 | 0.17 | 87 | 1009.4 |
| 20260506155815 | 49 | 45 | 2.0 | 5.0 | 0.03 | 0.17 | 0.17 | 85 | 1009.4 |
| 20260506154805 | 50 | 45 | 2.0 | 5.0 | 0.02 | 0.15 | 0.15 | 85 | 1009.5 |
| 20260506153754 | 50 | 68 | 3.0 | 9.0 | 0.02 | 0.14 | 0.14 | 84 | 1009.4 |
| 20260506152735 | 50 | 45 | 4.0 | 9.0 | 0.01 | 0.13 | 0.13 | 83 | 1009.3 |
| 20260506151714 | 51 | 45 | 3.0 | 8.0 | 0.02 | 0.13 | 0.13 | 82 | 1009.2 |
| 20260506150701 | 51 | 45 | 2.0 | 5.0 | 0.02 | 0.13 | 0.13 | 84 | 1009.2 |
| 20260506145657 | 50 | 45 | 3.0 | 9.0 | 0.01 | 0.13 | 0.13 | 87 | 1009.2 |
| 20260506144637 | 50 | 90 | 1.0 | 9.0 | 0.02 | 0.13 | 0.13 | 91 | 1009.2 |
| 20260506143624 | 50 | 113 | 1.0 | 3.0 | 0.02 | 0.13 | 0.13 | 90 | 1009.2 |
| 20260506142605 | 50 | 45 | 2.0 | 9.0 | 0.02 | 0.12 | 0.12 | 89 | 1009.2 |
| 20260506141547 | 51 | 113 | 0.0 | 9.0 | 0.02 | 0.12 | 0.12 | 90 | 1009.2 |
| 20260506140528 | 50 | 113 | 1.0 | 4.0 | 0.03 | 0.12 | 0.12 | 89 | 1009.2 |
| 20260506135516 | 50 | 113 | 1.0 | 4.0 | 0.02 | 0.11 | 0.11 | 88 | 1009.2 |
| 20260506134441 | 51 | 113 | 2.0 | 10.0 | 0.03 | 0.11 | 0.11 | 87 | 1009.2 |
| 20260506125328 | 49 | 68 | 0.0 | 1.0 | 0.02 | 0.08 | 0.08 | 90 | 1009.2 |
| 20260506124257 | 50 | 68 | 0.0 | 1.0 | 0.02 | 0.07 | 0.07 | 89 | 1009.1 |
| 20260506123226 | 50 | 68 | 0.0 | 1.0 | 0.02 | 0.07 | 0.07 | 87 | 1009.0 |
| 20260506122156 | 50 | 68 | 0.0 | 2.0 | 0.01 | 0.06 | 0.06 | 85 | 1009.0 |
| 20260506121135 | 50 | 68 | 1.0 | 3.0 | 0.00 | 0.06 | 0.06 | 83 | 1008.9 |
| 20260506120113 | 51 | 45 | 2.0 | 5.0 | 0.01 | 0.06 | 0.06 | 81 | 1008.8 |
| 20260506115108 | 50 | 45 | 2.0 | 5.0 | 0.01 | 0.06 | 0.06 | 82 | 1008.8 |
| 20260506114049 | 50 | 45 | 2.0 | 5.0 | 0.02 | 0.06 | 0.06 | 83 | 1008.8 |
| 20260506113032 | 49 | 45 | 2.0 | 6.0 | 0.02 | 0.06 | 0.06 | 84 | 1008.8 |
| 20260506110950 | 49 | 45 | 2.0 | 8.0 | 0.02 | 0.05 | 0.05 | 85 | 1008.8 |
| 20260506105912 | 49 | 45 | 2.0 | 5.0 | 0.02 | 0.05 | 0.05 | 85 | 1008.9 |
| 20260506104852 | 50 | 68 | 2.0 | 6.0 | 0.02 | 0.04 | 0.04 | 85 | 1008.9 |
| 20260506102822 | 50 | 45 | 3.0 | 7.0 | 0.02 | 0.03 | 0.03 | 82 | 1008.9 |
| 20260506101749 | 50 | 68 | 3.0 | 6.0 | 0.02 | 0.03 | 0.03 | 84 | 1008.9 |
| 20260506100723 | 50 | 45 | 3.0 | 6.0 | 0.02 | 0.02 | 0.02 | 85 | 1008.8 |
| 20260506094648 | 49 | 68 | 2.0 | 6.0 | 0.02 | 0.02 | 0.02 | 85 | 1008.8 |
| 20260506091530 | 49 | 45 | 3.0 | 7.0 | 0.01 | 0.01 | 0.01 | 81 | 1008.9 |
| 20260506090512 | 49 | 45 | 4.0 | 11.0 | 0.00 | 0.00 | 0.00 | 79 | 1008.8 |
| 20260506085513 | 50 | 68 | 4.0 | 10.0 | 0.00 | 0.00 | 0.00 | 79 | 1008.8 |
| 20260506082445 | 50 | 45 | 5.0 | 11.0 | 0.00 | 0.00 | 0.00 | 75 | 1008.6 |
| 20260506081435 | 50 | 45 | 4.0 | 10.0 | 0.00 | 0.00 | 0.00 | 76 | 1008.5 |
| 20260506080420 | 50 | 68 | 4.0 | 9.0 | 0.00 | 0.00 | 0.00 | 76 | 1008.4 |
| 20260506073324 | 49 | 45 | 4.0 | 10.0 | 0.00 | 0.00 | 0.00 | 76 | 1008.3 |
| 20260506072307 | 49 | 45 | 4.0 | 10.0 | 0.00 | 0.00 | 0.00 | 75 | 1008.3 |
| 20260506071256 | 49 | 45 | 4.0 | 11.0 | 0.00 | 0.00 | 0.00 | 74 | 1008.3 |
| 20260506070230 | 49 | 45 | 5.0 | 11.0 | 0.00 | 0.00 | 0.00 | 73 | 1008.4 |
| 20260506062026 | 49 | 45 | 4.0 | 9.0 | 0.00 | 0.00 | 0.00 | 72 | 1008.2 |
| 20260506061006 | 49 | 45 | 4.0 | 9.0 | 0.00 | 0.00 | 0.00 | 72 | 1008.1 |
| 20260506050747 | 49 | 45 | 4.0 | 9.0 | 0.00 | 0.03 | 0.00 | 74 | 1008.1 |
| 20260506044716 | 48 | 45 | 4.0 | 10.0 | 0.00 | 0.05 | 0.00 | 74 | 1008.2 |
| 20260506043643 | 49 | 45 | 3.0 | 6.0 | 0.00 | 0.06 | 0.00 | 75 | 1008.3 |
| 20260506042624 | 49 | 45 | 3.0 | 7.0 | 0.00 | 0.06 | 0.00 | 74 | 1008.3 |
| 20260506041611 | 49 | 45 | 4.0 | 9.0 | 0.00 | 0.07 | 0.00 | 75 | 1008.3 |
| 20260506040609 | 49 | 68 | 3.0 | 8.0 | 0.00 | 0.09 | 0.00 | 75 | 1008.3 |
| 20260506034537 | 49 | 45 | 4.0 | 9.0 | 0.00 | 0.12 | 0.00 | 73 | 1008.2 |
| 20260506033513 | 49 | 45 | 4.0 | 10.0 | 0.00 | 0.13 | 0.00 | 72 | 1008.2 |
| 20260506032448 | 49 | 68 | 4.0 | 10.0 | 0.00 | 0.13 | 0.00 | 71 | 1008.3 |
| 20260506031422 | 49 | 45 | 3.0 | 8.0 | 0.00 | 0.13 | 0.00 | 73 | 1008.4 |
| 20260506030401 | 49 | 45 | 3.0 | 7.0 | 0.00 | 0.14 | 0.00 | 75 | 1008.5 |
| 20260506025336 | 49 | 68 | 3.0 | 7.0 | 0.00 | 0.14 | 0.00 | 75 | 1008.7 |
| 20260506023248 | 49 | 68 | 2.0 | 5.0 | 0.00 | 0.15 | 0.00 | 75 | 1008.8 |
| 20260506022221 | 49 | 45 | 3.0 | 9.0 | 0.00 | 0.15 | 0.00 | 74 | 1008.9 |
| 20260506021157 | 49 | 68 | 3.0 | 7.0 | 0.00 | 0.15 | 0.00 | 73 | 1008.9 |
| 20260506015110 | 50 | 68 | 3.0 | 4.0 | 0.00 | 0.16 | 0.00 | 70 | 1009.1 |
| 20260506014045 | 50 | 68 | 3.0 | 9.0 | 0.00 | 0.16 | 0.00 | 68 | 1009.3 |
| 20260506013017 | 50 | 68 | 4.0 | 8.0 | 0.00 | 0.16 | 0.00 | 69 | 1009.2 |
| 20260506005941 | 50 | 68 | 4.0 | 11.0 | 0.00 | 0.16 | 0.00 | 71 | 1009.4 |
| 20260506004917 | 50 | 45 | 4.0 | 11.0 | 0.00 | 0.17 | 0.00 | 71 | 1009.4 |
| 20260506002820 | 51 | 68 | 4.0 | 11.0 | 0.00 | 0.17 | 0.00 | 72 | 1009.6 |
| 20260506000743 | 50 | 45 | 3.0 | 8.0 | 0.00 | 0.17 | 0.00 | 76 | 1009.7 |
| 20260505235740 | 50 | 45 | 3.0 | 7.0 | 0.00 | 0.17 | 0.00 | 79 | 1009.7 |
| 20260505234706 | 50 | 45 | 3.0 | 5.0 | 0.00 | 0.17 | 0.00 | 81 | 1009.8 |
| 20260505232637 | 50 | 45 | 3.0 | 9.0 | 0.00 | 0.17 | 0.00 | 83 | 1009.8 |
| 20260505230608 | 50 | 45 | 3.0 | 7.0 | 0.00 | 0.17 | 0.00 | 82 | 1009.8 |
| 20260505224535 | 50 | 45 | 4.0 | 9.0 | 0.00 | 0.17 | 0.00 | 81 | 1009.9 |
| 20260505223518 | 50 | 45 | 4.0 | 9.0 | 0.00 | 0.17 | 0.00 | 81 | 1009.9 |
| 20260505222455 | 51 | 45 | 4.0 | 10.0 | 0.00 | 0.17 | 0.00 | 80 | 1009.9 |
| 20260505221431 | 51 | 45 | 4.0 | 9.0 | 0.00 | 0.17 | 0.00 | 79 | 1010.0 |
| 20260505220357 | 51 | 68 | 4.0 | 7.0 | 0.00 | 0.17 | 0.00 | 78 | 1010.0 |
| 20260505215333 | 51 | 45 | 4.0 | 10.0 | 0.00 | 0.17 | 0.17 | 77 | 1009.8 |
| 20260505214306 | 51 | 68 | 3.0 | 6.0 | 0.00 | 0.17 | 0.17 | 77 | 1009.9 |
| 20260505213232 | 51 | 45 | 3.0 | 7.0 | 0.00 | 0.17 | 0.17 | 77 | 1010.1 |
| 20260505212215 | 51 | 45 | 2.0 | 5.0 | 0.00 | 0.17 | 0.17 | 77 | 1010.1 |
| 20260505211152 | 52 | 68 | 2.0 | 4.0 | 0.00 | 0.17 | 0.17 | 77 | 1010.1 |
| 20260505210136 | 52 | 45 | 2.0 | 4.0 | 0.00 | 0.17 | 0.17 | 77 | 1010.2 |
| 20260505205115 | 52 | 45 | 2.0 | 5.0 | 0.00 | 0.17 | 0.17 | 78 | 1010.2 |
| 20260505201953 | 53 | 68 | 2.0 | 4.0 | 0.00 | 0.17 | 0.17 | 80 | 1010.1 |
| 20260505200936 | 53 | 68 | 2.0 | 4.0 | 0.00 | 0.17 | 0.17 | 80 | 1010.1 |
| 20260505195930 | 53 | 45 | 2.0 | 5.0 | 0.00 | 0.17 | 0.17 | 79 | 1010.0 |
| 20260505194910 | 53 | 45 | 2.0 | 6.0 | 0.00 | 0.17 | 0.17 | 80 | 1010.0 |
| 20260505191801 | 53 | 45 | 0.0 | 2.0 | 0.00 | 0.17 | 0.17 | 83 | 1009.8 |
| 20260505190734 | 53 | 45 | 0.0 | 3.0 | 0.00 | 0.17 | 0.17 | 82 | 1009.8 |
| 20260505185713 | 54 | 23 | 1.0 | 5.0 | 0.00 | 0.17 | 0.17 | 81 | 1009.8 |
| 20260505184640 | 54 | 68 | 2.0 | 5.0 | 0.00 | 0.17 | 0.17 | 80 | 1009.7 |
| 20260505183605 | 54 | 68 | 3.0 | 5.0 | 0.00 | 0.17 | 0.17 | 79 | 1009.6 |
| 20260505182539 | 54 | 45 | 3.0 | 9.0 | 0.00 | 0.17 | 0.17 | 79 | 1009.8 |
| 20260505181521 | 54 | 45 | 3.0 | 9.0 | 0.00 | 0.17 | 0.17 | 79 | 1009.8 |
| 20260505180510 | 55 | 68 | 3.0 | 8.0 | 0.00 | 0.17 | 0.17 | 79 | 1009.8 |